sensor_id;sensor_type;location;lat;lon;timestamp;pressure;altitude;pressure_sealevel;temperature;humidity
550;BME280;20066;48.764;9.176;2023-05-23T00:01:10;98017.00;;;20.83;65.56
550;BME280;20066;48.764;9.176;2023-05-23T00:03:40;98010.75;;;20.55;65.27
550;BME280;20066;48.764;9.176;2023-05-23T00:06:07;98018.22;;;20.06;69.96
550;BME280;20066;48.764;9.176;2023-05-23T00:08:35;98015.72;;;19.80;69.53
550;BME280;20066;48.764;9.176;2023-05-23T00:11:04;98015.72;;;20.38;67.06
550;BME280;20066;48.764;9.176;2023-05-23T00:13:32;98019.66;;;20.37;68.35
550;BME280;20066;48.764;9.176;2023-05-23T00:16:01;98019.25;;;20.75;65.92
550;BME280;20066;48.764;9.176;2023-05-23T00:18:29;98020.53;;;20.16;68.83
550;BME280;20066;48.764;9.176;2023-05-23T00:20:57;98020.63;;;20.04;69.12
550;BME280;20066;48.764;9.176;2023-05-23T00:23:25;98018.84;;;20.10;69.01
550;BME280;20066;48.764;9.176;2023-05-23T00:25:55;98008.47;;;20.54;68.14
550;BME280;20066;48.764;9.176;2023-05-23T00:28:25;98010.06;;;20.15;68.89
550;BME280;20066;48.764;9.176;2023-05-23T00:30:53;98008.00;;;19.88;70.56
550;BME280;20066;48.764;9.176;2023-05-23T00:33:21;98003.28;;;20.37;68.94
550;BME280;20066;48.764;9.176;2023-05-23T00:35:49;98011.31;;;20.32;68.77
550;BME280;20066;48.764;9.176;2023-05-23T00:38:17;98013.03;;;20.57;68.67
550;BME280;20066;48.764;9.176;2023-05-23T00:40:45;98019.31;;;19.68;70.89
550;BME280;20066;48.764;9.176;2023-05-23T00:43:13;98026.38;;;19.35;73.26
550;BME280;20066;48.764;9.176;2023-05-23T00:45:42;98022.88;;;19.56;73.28
550;BME280;20066;48.764;9.176;2023-05-23T00:48:10;98017.66;;;20.20;70.91
550;BME280;20066;48.764;9.176;2023-05-23T00:50:39;98025.19;;;20.47;69.83
550;BME280;20066;48.764;9.176;2023-05-23T00:53:07;98018.28;;;20.42;68.67
550;BME280;20066;48.764;9.176;2023-05-23T00:55:35;98021.56;;;20.77;67.43
550;BME280;20066;48.764;9.176;2023-05-23T00:58:05;98024.56;;;20.02;70.56
550;BME280;20066;48.764;9.176;2023-05-23T01:00:33;98032.13;;;20.38;69.04
550;BME280;20066;48.764;9.176;2023-05-23T01:03:03;98029.50;;;19.77;73.01
550;BME280;20066;48.764;9.176;2023-05-23T01:05:31;98030.63;;;19.97;70.66
550;BME280;20066;48.764;9.176;2023-05-23T01:07:59;98031.41;;;20.84;67.30
550;BME280;20066;48.764;9.176;2023-05-23T01:10:29;98038.56;;;20.81;67.76
550;BME280;20066;48.764;9.176;2023-05-23T01:13:05;98024.25;;;20.41;67.43
550;BME280;20066;48.764;9.176;2023-05-23T01:15:39;98033.00;;;20.17;69.56
550;BME280;20066;48.764;9.176;2023-05-23T01:18:15;98025.09;;;19.70;72.90
550;BME280;20066;48.764;9.176;2023-05-23T01:20:48;98033.75;;;20.27;70.21
550;BME280;20066;48.764;9.176;2023-05-23T01:26:32;98040.97;;;20.61;67.41
550;BME280;20066;48.764;9.176;2023-05-23T01:29:06;98033.69;;;20.58;67.81
550;BME280;20066;48.764;9.176;2023-05-23T01:31:39;98036.19;;;20.25;70.64
550;BME280;20066;48.764;9.176;2023-05-23T01:34:09;98036.19;;;20.34;67.96
550;BME280;20066;48.764;9.176;2023-05-23T01:36:40;98035.53;;;20.79;67.59
550;BME280;20066;48.764;9.176;2023-05-23T01:39:09;98034.13;;;20.65;66.64
550;BME280;20066;48.764;9.176;2023-05-23T01:41:37;98031.72;;;20.76;67.19
550;BME280;20066;48.764;9.176;2023-05-23T01:44:06;98036.34;;;20.30;68.38
550;BME280;20066;48.764;9.176;2023-05-23T01:46:34;98033.69;;;20.49;67.58
550;BME280;20066;48.764;9.176;2023-05-23T01:49:07;98041.84;;;19.90;70.04
550;BME280;20066;48.764;9.176;2023-05-23T01:51:36;98039.78;;;20.13;69.80
550;BME280;20066;48.764;9.176;2023-05-23T01:54:04;98044.19;;;20.68;66.96
550;BME280;20066;48.764;9.176;2023-05-23T01:56:32;98040.50;;;20.53;67.82
550;BME280;20066;48.764;9.176;2023-05-23T01:59:01;98043.16;;;19.24;72.72
550;BME280;20066;48.764;9.176;2023-05-23T02:01:31;98038.47;;;19.55;70.83
550;BME280;20066;48.764;9.176;2023-05-23T02:04:00;98043.41;;;20.00;70.81
550;BME280;20066;48.764;9.176;2023-05-23T02:06:27;98041.66;;;20.34;68.83
550;BME280;20066;48.764;9.176;2023-05-23T02:08:55;98049.78;;;20.47;68.07
550;BME280;20066;48.764;9.176;2023-05-23T02:11:23;98043.31;;;20.22;69.09
550;BME280;20066;48.764;9.176;2023-05-23T02:13:52;98037.97;;;20.10;68.70
550;BME280;20066;48.764;9.176;2023-05-23T02:16:20;98033.41;;;19.67;70.34
550;BME280;20066;48.764;9.176;2023-05-23T02:18:50;98030.38;;;18.65;75.96
550;BME280;20066;48.764;9.176;2023-05-23T02:21:18;98041.41;;;18.61;75.59
550;BME280;20066;48.764;9.176;2023-05-23T02:23:46;98037.75;;;18.90;74.94
550;BME280;20066;48.764;9.176;2023-05-23T02:26:14;98037.69;;;19.77;71.89
550;BME280;20066;48.764;9.176;2023-05-23T02:28:42;98043.97;;;19.64;71.28
550;BME280;20066;48.764;9.176;2023-05-23T02:31:10;98033.13;;;19.74;71.54
550;BME280;20066;48.764;9.176;2023-05-23T02:33:37;98038.25;;;19.72;71.74
550;BME280;20066;48.764;9.176;2023-05-23T02:36:07;98040.75;;;20.28;69.53
550;BME280;20066;48.764;9.176;2023-05-23T02:38:34;98049.34;;;19.46;72.51
550;BME280;20066;48.764;9.176;2023-05-23T02:41:03;98044.91;;;18.96;74.52
550;BME280;20066;48.764;9.176;2023-05-23T02:43:31;98049.19;;;19.72;72.28
550;BME280;20066;48.764;9.176;2023-05-23T02:45:59;98055.09;;;20.01;70.94
550;BME280;20066;48.764;9.176;2023-05-23T02:48:26;98054.69;;;20.21;69.45
550;BME280;20066;48.764;9.176;2023-05-23T02:50:54;98054.72;;;19.59;72.03
550;BME280;20066;48.764;9.176;2023-05-23T02:53:23;98056.75;;;19.68;71.95
550;BME280;20066;48.764;9.176;2023-05-23T02:55:51;98058.34;;;19.34;72.18
550;BME280;20066;48.764;9.176;2023-05-23T02:58:19;98065.72;;;19.24;73.34
550;BME280;20066;48.764;9.176;2023-05-23T03:00:48;98060.22;;;19.99;70.86
550;BME280;20066;48.764;9.176;2023-05-23T03:03:15;98061.75;;;20.00;69.25
550;BME280;20066;48.764;9.176;2023-05-23T03:05:43;98061.63;;;19.73;70.51
550;BME280;20066;48.764;9.176;2023-05-23T03:08:11;98069.06;;;18.85;74.16
550;BME280;20066;48.764;9.176;2023-05-23T03:10:40;98061.34;;;19.80;71.41
550;BME280;20066;48.764;9.176;2023-05-23T03:13:08;98068.00;;;19.48;71.82
550;BME280;20066;48.764;9.176;2023-05-23T03:15:36;98066.34;;;20.12;69.65
550;BME280;20066;48.764;9.176;2023-05-23T03:18:04;98072.00;;;20.27;68.85
550;BME280;20066;48.764;9.176;2023-05-23T03:20:32;98071.81;;;20.61;66.78
550;BME280;20066;48.764;9.176;2023-05-23T03:22:59;98073.38;;;20.22;67.45
550;BME280;20066;48.764;9.176;2023-05-23T03:25:27;98080.63;;;20.16;68.06
550;BME280;20066;48.764;9.176;2023-05-23T03:27:56;98073.22;;;19.86;69.79
550;BME280;20066;48.764;9.176;2023-05-23T03:30:24;98076.84;;;20.23;68.66
550;BME280;20066;48.764;9.176;2023-05-23T03:32:52;98079.53;;;19.74;68.86
550;BME280;20066;48.764;9.176;2023-05-23T03:35:21;98085.75;;;19.52;71.73
550;BME280;20066;48.764;9.176;2023-05-23T03:37:48;98077.34;;;19.90;69.62
550;BME280;20066;48.764;9.176;2023-05-23T03:40:16;98074.50;;;19.72;70.86
550;BME280;20066;48.764;9.176;2023-05-23T03:42:47;98077.16;;;20.25;68.45
550;BME280;20066;48.764;9.176;2023-05-23T03:45:16;98078.09;;;19.91;70.21
550;BME280;20066;48.764;9.176;2023-05-23T03:47:44;98078.75;;;19.73;69.53
550;BME280;20066;48.764;9.176;2023-05-23T03:50:12;98077.91;;;20.16;68.75
550;BME280;20066;48.764;9.176;2023-05-23T03:52:40;98074.56;;;20.21;67.90
550;BME280;20066;48.764;9.176;2023-05-23T03:55:08;98075.22;;;19.20;70.89
550;BME280;20066;48.764;9.176;2023-05-23T03:57:36;98071.50;;;20.10;68.78
550;BME280;20066;48.764;9.176;2023-05-23T04:00:05;98068.19;;;19.53;70.37
550;BME280;20066;48.764;9.176;2023-05-23T04:02:36;98067.09;;;19.73;69.24
550;BME280;20066;48.764;9.176;2023-05-23T04:05:05;98077.59;;;19.31;71.66
550;BME280;20066;48.764;9.176;2023-05-23T04:07:33;98078.53;;;19.37;70.64
550;BME280;20066;48.764;9.176;2023-05-23T04:10:02;98080.03;;;19.81;70.11
550;BME280;20066;48.764;9.176;2023-05-23T04:12:30;98081.19;;;19.71;70.88
550;BME280;20066;48.764;9.176;2023-05-23T04:14:57;98084.91;;;20.26;68.34
550;BME280;20066;48.764;9.176;2023-05-23T04:17:25;98085.94;;;18.93;74.18
550;BME280;20066;48.764;9.176;2023-05-23T04:19:57;98088.75;;;19.98;68.14
550;BME280;20066;48.764;9.176;2023-05-23T04:22:25;98079.75;;;19.88;69.97
550;BME280;20066;48.764;9.176;2023-05-23T04:24:53;98089.44;;;18.93;72.23
550;BME280;20066;48.764;9.176;2023-05-23T04:27:21;98086.13;;;19.85;69.88
550;BME280;20066;48.764;9.176;2023-05-23T04:29:51;98094.78;;;19.40;69.94
550;BME280;20066;48.764;9.176;2023-05-23T04:32:19;98082.44;;;20.10;69.08
550;BME280;20066;48.764;9.176;2023-05-23T04:34:48;98088.50;;;20.14;67.40
550;BME280;20066;48.764;9.176;2023-05-23T04:37:18;98086.69;;;19.58;69.54
550;BME280;20066;48.764;9.176;2023-05-23T04:39:52;98095.16;;;19.30;73.01
550;BME280;20066;48.764;9.176;2023-05-23T04:42:20;98096.22;;;19.54;70.80
550;BME280;20066;48.764;9.176;2023-05-23T04:44:50;98106.72;;;18.99;71.88
550;BME280;20066;48.764;9.176;2023-05-23T04:47:18;98102.34;;;18.55;74.11
550;BME280;20066;48.764;9.176;2023-05-23T04:49:46;98110.31;;;19.74;70.88
550;BME280;20066;48.764;9.176;2023-05-23T04:52:14;98111.38;;;19.11;72.94
550;BME280;20066;48.764;9.176;2023-05-23T04:54:45;98111.13;;;19.62;71.44
550;BME280;20066;48.764;9.176;2023-05-23T04:57:15;98109.66;;;19.05;73.41
550;BME280;20066;48.764;9.176;2023-05-23T04:59:43;98117.91;;;19.36;72.53
550;BME280;20066;48.764;9.176;2023-05-23T05:02:11;98128.28;;;20.15;68.12
550;BME280;20066;48.764;9.176;2023-05-23T05:04:39;98122.00;;;19.75;69.98
550;BME280;20066;48.764;9.176;2023-05-23T05:07:07;98126.09;;;19.36;72.14
550;BME280;20066;48.764;9.176;2023-05-23T05:09:35;98115.53;;;19.38;72.48
550;BME280;20066;48.764;9.176;2023-05-23T05:12:04;98122.25;;;19.46;71.44
550;BME280;20066;48.764;9.176;2023-05-23T05:14:32;98121.69;;;19.73;70.82
550;BME280;20066;48.764;9.176;2023-05-23T05:17:00;98121.25;;;19.18;74.09
550;BME280;20066;48.764;9.176;2023-05-23T05:19:29;98123.00;;;19.90;69.92
550;BME280;20066;48.764;9.176;2023-05-23T05:21:57;98135.81;;;19.02;70.68
550;BME280;20066;48.764;9.176;2023-05-23T05:24:25;98130.75;;;19.48;71.13
550;BME280;20066;48.764;9.176;2023-05-23T05:26:54;98128.81;;;19.57;70.90
550;BME280;20066;48.764;9.176;2023-05-23T05:29:24;98131.28;;;18.74;73.40
550;BME280;20066;48.764;9.176;2023-05-23T05:31:52;98133.53;;;19.57;71.90
550;BME280;20066;48.764;9.176;2023-05-23T05:34:20;98140.50;;;20.32;67.59
550;BME280;20066;48.764;9.176;2023-05-23T05:36:48;98141.38;;;19.33;71.28
550;BME280;20066;48.764;9.176;2023-05-23T05:39:16;98134.34;;;19.23;71.95
550;BME280;20066;48.764;9.176;2023-05-23T05:41:43;98139.69;;;19.48;70.68
550;BME280;20066;48.764;9.176;2023-05-23T05:44:11;98137.19;;;19.76;69.38
550;BME280;20066;48.764;9.176;2023-05-23T05:46:40;98144.44;;;20.00;69.16
550;BME280;20066;48.764;9.176;2023-05-23T05:49:08;98136.25;;;19.13;72.13
550;BME280;20066;48.764;9.176;2023-05-23T05:51:38;98134.00;;;19.77;70.07
550;BME280;20066;48.764;9.176;2023-05-23T05:54:06;98138.97;;;20.31;66.43
550;BME280;20066;48.764;9.176;2023-05-23T05:56:33;98146.22;;;20.25;67.41
550;BME280;20066;48.764;9.176;2023-05-23T05:59:01;98140.13;;;19.90;68.25
550;BME280;20066;48.764;9.176;2023-05-23T06:01:29;98142.88;;;20.61;66.53
550;BME280;20066;48.764;9.176;2023-05-23T06:03:58;98144.50;;;20.19;67.19
550;BME280;20066;48.764;9.176;2023-05-23T06:06:26;98142.19;;;19.55;70.34
550;BME280;20066;48.764;9.176;2023-05-23T06:08:54;98142.38;;;19.39;70.60
550;BME280;20066;48.764;9.176;2023-05-23T06:11:22;98147.88;;;19.92;68.30
550;BME280;20066;48.764;9.176;2023-05-23T06:13:50;98143.88;;;19.40;71.53
550;BME280;20066;48.764;9.176;2023-05-23T06:16:17;98143.81;;;19.53;70.14
550;BME280;20066;48.764;9.176;2023-05-23T06:18:45;98150.13;;;20.15;67.43
550;BME280;20066;48.764;9.176;2023-05-23T06:21:14;98148.97;;;19.94;67.81
550;BME280;20066;48.764;9.176;2023-05-23T06:23:42;98140.31;;;19.09;70.40
550;BME280;20066;48.764;9.176;2023-05-23T06:26:10;98147.22;;;19.79;69.03
550;BME280;20066;48.764;9.176;2023-05-23T06:28:38;98151.91;;;19.22;70.78
550;BME280;20066;48.764;9.176;2023-05-23T06:31:06;98156.69;;;19.96;68.95
550;BME280;20066;48.764;9.176;2023-05-23T06:33:35;98159.75;;;19.54;70.36
550;BME280;20066;48.764;9.176;2023-05-23T06:36:03;98153.75;;;20.12;67.58
550;BME280;20066;48.764;9.176;2023-05-23T06:38:32;98159.50;;;20.45;66.18
550;BME280;20066;48.764;9.176;2023-05-23T06:41:00;98164.72;;;20.21;67.73
550;BME280;20066;48.764;9.176;2023-05-23T06:43:29;98174.00;;;19.71;69.90
550;BME280;20066;48.764;9.176;2023-05-23T06:45:57;98172.09;;;20.43;66.94
550;BME280;20066;48.764;9.176;2023-05-23T06:48:25;98176.63;;;20.36;66.17
550;BME280;20066;48.764;9.176;2023-05-23T06:50:52;98167.78;;;19.71;68.59
550;BME280;20066;48.764;9.176;2023-05-23T06:53:20;98180.00;;;19.88;67.70
550;BME280;20066;48.764;9.176;2023-05-23T06:55:50;98186.47;;;19.59;69.58
550;BME280;20066;48.764;9.176;2023-05-23T06:58:18;98184.69;;;19.44;69.17
550;BME280;20066;48.764;9.176;2023-05-23T07:00:45;98185.44;;;19.66;69.35
550;BME280;20066;48.764;9.176;2023-05-23T07:03:13;98194.44;;;19.67;69.86
550;BME280;20066;48.764;9.176;2023-05-23T07:05:42;98200.44;;;18.93;72.46
550;BME280;20066;48.764;9.176;2023-05-23T07:08:10;98199.63;;;19.05;70.91
550;BME280;20066;48.764;9.176;2023-05-23T07:10:38;98209.78;;;18.79;71.95
550;BME280;20066;48.764;9.176;2023-05-23T07:13:08;98206.84;;;18.35;73.08
550;BME280;20066;48.764;9.176;2023-05-23T07:15:37;98217.94;;;18.16;74.25
550;BME280;20066;48.764;9.176;2023-05-23T07:18:05;98217.09;;;18.82;70.95
550;BME280;20066;48.764;9.176;2023-05-23T07:20:33;98222.34;;;19.02;69.47
550;BME280;20066;48.764;9.176;2023-05-23T07:23:01;98220.50;;;18.86;70.56
550;BME280;20066;48.764;9.176;2023-05-23T07:25:29;98222.22;;;18.80;68.41
550;BME280;20066;48.764;9.176;2023-05-23T07:27:56;98221.97;;;19.12;69.56
550;BME280;20066;48.764;9.176;2023-05-23T07:30:25;98220.31;;;18.14;71.05
550;BME280;20066;48.764;9.176;2023-05-23T07:32:53;98219.53;;;18.00;72.27
550;BME280;20066;48.764;9.176;2023-05-23T07:35:21;98225.91;;;17.94;73.31
550;BME280;20066;48.764;9.176;2023-05-23T07:37:51;98224.56;;;17.86;72.66
550;BME280;20066;48.764;9.176;2023-05-23T07:40:20;98226.31;;;18.08;72.31
550;BME280;20066;48.764;9.176;2023-05-23T07:42:47;98223.94;;;17.94;72.39
550;BME280;20066;48.764;9.176;2023-05-23T07:45:15;98225.81;;;18.77;70.31
550;BME280;20066;48.764;9.176;2023-05-23T07:47:44;98224.72;;;18.36;72.43
550;BME280;20066;48.764;9.176;2023-05-23T07:50:12;98234.97;;;18.45;70.14
550;BME280;20066;48.764;9.176;2023-05-23T07:52:40;98231.28;;;18.90;68.88
550;BME280;20066;48.764;9.176;2023-05-23T07:55:08;98235.91;;;18.13;69.57
550;BME280;20066;48.764;9.176;2023-05-23T07:57:37;98237.69;;;18.58;66.78
550;BME280;20066;48.764;9.176;2023-05-23T08:00:06;98242.59;;;18.75;66.54
550;BME280;20066;48.764;9.176;2023-05-23T08:02:35;98240.50;;;18.41;66.05
550;BME280;20066;48.764;9.176;2023-05-23T08:05:05;98245.09;;;18.57;67.34
550;BME280;20066;48.764;9.176;2023-05-23T08:07:34;98248.19;;;18.97;64.58
550;BME280;20066;48.764;9.176;2023-05-23T08:10:01;98249.34;;;18.58;65.15
550;BME280;20066;48.764;9.176;2023-05-23T08:12:29;98249.66;;;18.35;66.42
550;BME280;20066;48.764;9.176;2023-05-23T08:14:58;98249.09;;;17.41;69.19
550;BME280;20066;48.764;9.176;2023-05-23T08:17:25;98252.63;;;17.99;68.69
550;BME280;20066;48.764;9.176;2023-05-23T08:19:53;98249.56;;;18.64;65.84
550;BME280;20066;48.764;9.176;2023-05-23T08:22:22;98252.59;;;18.40;67.16
550;BME280;20066;48.764;9.176;2023-05-23T08:24:50;98260.38;;;17.55;68.41
550;BME280;20066;48.764;9.176;2023-05-23T08:27:18;98260.16;;;17.33;70.60
550;BME280;20066;48.764;9.176;2023-05-23T08:29:47;98264.19;;;17.58;69.66
550;BME280;20066;48.764;9.176;2023-05-23T08:32:15;98268.38;;;17.62;68.04
550;BME280;20066;48.764;9.176;2023-05-23T08:34:43;98276.88;;;17.93;66.98
550;BME280;20066;48.764;9.176;2023-05-23T08:37:11;98275.53;;;18.14;66.06
550;BME280;20066;48.764;9.176;2023-05-23T08:39:40;98275.19;;;17.99;66.84
550;BME280;20066;48.764;9.176;2023-05-23T08:42:08;98278.13;;;18.72;64.04
550;BME280;20066;48.764;9.176;2023-05-23T08:44:36;98283.66;;;18.01;66.47
550;BME280;20066;48.764;9.176;2023-05-23T08:47:04;98281.84;;;18.78;63.86
550;BME280;20066;48.764;9.176;2023-05-23T08:49:32;98281.41;;;18.67;63.07
550;BME280;20066;48.764;9.176;2023-05-23T08:52:01;98290.44;;;18.09;64.98
550;BME280;20066;48.764;9.176;2023-05-23T08:54:30;98287.34;;;18.36;64.43
550;BME280;20066;48.764;9.176;2023-05-23T08:57:00;98298.22;;;19.03;62.18
550;BME280;20066;48.764;9.176;2023-05-23T08:59:28;98294.84;;;18.20;63.90
550;BME280;20066;48.764;9.176;2023-05-23T09:01:57;98293.16;;;18.38;63.95
550;BME280;20066;48.764;9.176;2023-05-23T09:04:26;98295.41;;;17.98;65.23
550;BME280;20066;48.764;9.176;2023-05-23T09:06:55;98304.00;;;19.31;60.62
550;BME280;20066;48.764;9.176;2023-05-23T09:09:24;98296.34;;;17.92;65.44
550;BME280;20066;48.764;9.176;2023-05-23T09:11:54;98298.81;;;17.41;68.15
550;BME280;20066;48.764;9.176;2023-05-23T09:14:24;98303.06;;;18.03;66.48
550;BME280;20066;48.764;9.176;2023-05-23T09:16:52;98302.31;;;17.87;65.47
550;BME280;20066;48.764;9.176;2023-05-23T09:19:20;98299.91;;;17.60;65.30
550;BME280;20066;48.764;9.176;2023-05-23T09:21:48;98309.44;;;17.19;67.10
550;BME280;20066;48.764;9.176;2023-05-23T09:24:16;98306.63;;;17.07;66.71
550;BME280;20066;48.764;9.176;2023-05-23T09:26:45;98302.19;;;17.61;66.54
550;BME280;20066;48.764;9.176;2023-05-23T09:29:15;98313.59;;;17.40;66.71
550;BME280;20066;48.764;9.176;2023-05-23T09:31:47;98310.00;;;17.76;64.10
550;BME280;20066;48.764;9.176;2023-05-23T09:34:15;98319.13;;;18.68;62.78
550;BME280;20066;48.764;9.176;2023-05-23T09:36:45;98317.28;;;18.24;62.44
550;BME280;20066;48.764;9.176;2023-05-23T09:39:13;98317.44;;;18.04;63.92
550;BME280;20066;48.764;9.176;2023-05-23T09:41:41;98320.22;;;18.17;63.15
550;BME280;20066;48.764;9.176;2023-05-23T09:44:09;98316.72;;;18.16;61.52
550;BME280;20066;48.764;9.176;2023-05-23T09:46:37;98316.47;;;18.10;62.06
550;BME280;20066;48.764;9.176;2023-05-23T09:49:15;98323.81;;;18.68;60.77
550;BME280;20066;48.764;9.176;2023-05-23T09:51:56;98314.13;;;19.30;58.54
550;BME280;20066;48.764;9.176;2023-05-23T09:54:24;98312.91;;;19.44;58.48
550;BME280;20066;48.764;9.176;2023-05-23T09:56:52;98321.97;;;19.88;57.10
550;BME280;20066;48.764;9.176;2023-05-23T09:59:21;98325.78;;;19.43;58.98
550;BME280;20066;48.764;9.176;2023-05-23T10:01:51;98322.41;;;18.76;60.67
550;BME280;20066;48.764;9.176;2023-05-23T10:04:23;98321.78;;;18.97;60.64
550;BME280;20066;48.764;9.176;2023-05-23T10:06:55;98321.88;;;19.44;57.76
550;BME280;20066;48.764;9.176;2023-05-23T10:09:32;98312.75;;;20.29;55.93
550;BME280;20066;48.764;9.176;2023-05-23T10:12:38;98317.88;;;20.70;54.34
550;BME280;20066;48.764;9.176;2023-05-23T10:15:08;98316.06;;;19.42;56.22
550;BME280;20066;48.764;9.176;2023-05-23T10:17:59;98317.69;;;19.52;57.55
550;BME280;20066;48.764;9.176;2023-05-23T10:20:31;98313.13;;;18.61;59.64
550;BME280;20066;48.764;9.176;2023-05-23T10:22:59;98306.75;;;19.65;56.34
550;BME280;20066;48.764;9.176;2023-05-23T10:25:28;98311.09;;;20.84;54.02
550;BME280;20066;48.764;9.176;2023-05-23T10:27:57;98316.31;;;20.60;54.08
550;BME280;20066;48.764;9.176;2023-05-23T10:30:29;98319.13;;;21.68;50.05
550;BME280;20066;48.764;9.176;2023-05-23T10:32:58;98310.69;;;19.77;54.28
550;BME280;20066;48.764;9.176;2023-05-23T10:35:37;98304.84;;;19.87;54.51
550;BME280;20066;48.764;9.176;2023-05-23T10:38:27;98304.56;;;20.07;54.28
550;BME280;20066;48.764;9.176;2023-05-23T10:41:01;98311.78;;;20.45;52.11
550;BME280;20066;48.764;9.176;2023-05-23T10:43:39;98305.00;;;20.49;50.81
550;BME280;20066;48.764;9.176;2023-05-23T10:46:07;98309.63;;;21.32;49.79
550;BME280;20066;48.764;9.176;2023-05-23T10:48:41;98316.84;;;21.66;50.74
550;BME280;20066;48.764;9.176;2023-05-23T10:51:12;98322.28;;;21.48;50.65
550;BME280;20066;48.764;9.176;2023-05-23T10:53:41;98308.88;;;20.39;52.72
550;BME280;20066;48.764;9.176;2023-05-23T10:56:25;98308.75;;;20.64;52.80
550;BME280;20066;48.764;9.176;2023-05-23T10:58:58;98315.91;;;20.71;52.27
550;BME280;20066;48.764;9.176;2023-05-23T11:01:25;98318.13;;;21.25;51.38
550;BME280;20066;48.764;9.176;2023-05-23T11:03:54;98318.28;;;20.91;51.63
550;BME280;20066;48.764;9.176;2023-05-23T11:06:31;98314.88;;;21.18;51.87
550;BME280;20066;48.764;9.176;2023-05-23T11:09:02;98327.63;;;21.51;51.18
550;BME280;20066;48.764;9.176;2023-05-23T11:11:52;98328.19;;;20.66;51.42
550;BME280;20066;48.764;9.176;2023-05-23T11:14:31;98325.16;;;20.64;51.85
550;BME280;20066;48.764;9.176;2023-05-23T11:16:59;98326.81;;;20.93;50.93
550;BME280;20066;48.764;9.176;2023-05-23T11:19:28;98331.31;;;20.56;51.11
550;BME280;20066;48.764;9.176;2023-05-23T11:22:01;98330.41;;;20.15;52.10
550;BME280;20066;48.764;9.176;2023-05-23T11:24:47;98335.09;;;21.97;48.10
550;BME280;20066;48.764;9.176;2023-05-23T11:27:16;98333.63;;;21.28;49.66
550;BME280;20066;48.764;9.176;2023-05-23T11:29:56;98330.28;;;20.41;50.29
550;BME280;20066;48.764;9.176;2023-05-23T11:32:27;98330.16;;;20.97;48.91
550;BME280;20066;48.764;9.176;2023-05-23T11:34:55;98329.03;;;20.85;47.91
550;BME280;20066;48.764;9.176;2023-05-23T11:37:27;98327.06;;;20.33;49.16
550;BME280;20066;48.764;9.176;2023-05-23T11:39:55;98333.88;;;21.61;47.98
550;BME280;20066;48.764;9.176;2023-05-23T11:42:23;98325.88;;;22.03;47.11
550;BME280;20066;48.764;9.176;2023-05-23T11:44:51;98324.13;;;21.11;49.34
550;BME280;20066;48.764;9.176;2023-05-23T11:47:19;98329.34;;;21.95;47.38
550;BME280;20066;48.764;9.176;2023-05-23T11:49:48;98321.13;;;20.13;51.64
550;BME280;20066;48.764;9.176;2023-05-23T11:52:15;98322.28;;;19.68;53.45
550;BME280;20066;48.764;9.176;2023-05-23T11:54:45;98322.72;;;21.37;49.50
550;BME280;20066;48.764;9.176;2023-05-23T11:57:12;98321.41;;;20.80;49.95
550;BME280;20066;48.764;9.176;2023-05-23T11:59:41;98321.34;;;20.40;50.14
550;BME280;20066;48.764;9.176;2023-05-23T12:02:08;98324.47;;;21.80;47.52
550;BME280;20066;48.764;9.176;2023-05-23T12:04:36;98326.94;;;22.15;46.72
550;BME280;20066;48.764;9.176;2023-05-23T12:07:05;98329.44;;;22.64;44.71
550;BME280;20066;48.764;9.176;2023-05-23T12:09:41;98316.88;;;22.21;45.33
550;BME280;20066;48.764;9.176;2023-05-23T12:12:11;98324.75;;;23.07;43.43
550;BME280;20066;48.764;9.176;2023-05-23T12:14:39;98319.81;;;21.32;47.81
550;BME280;20066;48.764;9.176;2023-05-23T12:17:10;98327.50;;;22.37;45.93
550;BME280;20066;48.764;9.176;2023-05-23T12:19:44;98314.75;;;22.07;45.29
550;BME280;20066;48.764;9.176;2023-05-23T12:22:12;98321.03;;;22.67;43.98
550;BME280;20066;48.764;9.176;2023-05-23T12:24:44;98316.13;;;23.79;42.31
550;BME280;20066;48.764;9.176;2023-05-23T12:27:15;98319.78;;;25.93;38.38
550;BME280;20066;48.764;9.176;2023-05-23T12:29:49;98311.53;;;27.93;33.63
550;BME280;20066;48.764;9.176;2023-05-23T12:32:18;98311.97;;;27.80;33.80
550;BME280;20066;48.764;9.176;2023-05-23T12:34:48;98313.47;;;25.87;37.40
550;BME280;20066;48.764;9.176;2023-05-23T12:37:16;98303.78;;;29.53;31.46
550;BME280;20066;48.764;9.176;2023-05-23T12:39:46;98299.06;;;28.31;32.08
550;BME280;20066;48.764;9.176;2023-05-23T12:42:15;98300.97;;;23.99;40.35
550;BME280;20066;48.764;9.176;2023-05-23T12:44:43;98297.00;;;22.53;44.72
550;BME280;20066;48.764;9.176;2023-05-23T12:47:12;98296.84;;;23.08;44.11
550;BME280;20066;48.764;9.176;2023-05-23T12:49:40;98295.44;;;22.01;45.98
550;BME280;20066;48.764;9.176;2023-05-23T12:52:10;98294.78;;;21.61;46.50
550;BME280;20066;48.764;9.176;2023-05-23T12:54:38;98291.06;;;20.34;49.75
550;BME280;20066;48.764;9.176;2023-05-23T12:57:05;98282.28;;;21.60;47.28
550;BME280;20066;48.764;9.176;2023-05-23T12:59:34;98293.69;;;23.96;42.57
550;BME280;20066;48.764;9.176;2023-05-23T13:02:02;98287.34;;;23.90;41.63
550;BME280;20066;48.764;9.176;2023-05-23T13:04:30;98286.22;;;25.34;39.50
550;BME280;20066;48.764;9.176;2023-05-23T13:06:58;98287.47;;;28.32;33.82
550;BME280;20066;48.764;9.176;2023-05-23T13:09:26;98280.47;;;28.87;33.20
550;BME280;20066;48.764;9.176;2023-05-23T13:11:54;98279.13;;;25.68;37.11
550;BME280;20066;48.764;9.176;2023-05-23T13:14:22;98274.31;;;26.03;37.54
550;BME280;20066;48.764;9.176;2023-05-23T13:16:51;98268.81;;;24.14;40.10
550;BME280;20066;48.764;9.176;2023-05-23T13:19:19;98280.47;;;23.47;41.02
550;BME280;20066;48.764;9.176;2023-05-23T13:21:47;98282.06;;;22.63;42.46
550;BME280;20066;48.764;9.176;2023-05-23T13:24:15;98272.34;;;24.44;40.61
550;BME280;20066;48.764;9.176;2023-05-23T13:26:43;98269.97;;;23.45;42.77
550;BME280;20066;48.764;9.176;2023-05-23T13:29:11;98275.53;;;22.52;44.65
550;BME280;20066;48.764;9.176;2023-05-23T13:31:39;98269.28;;;21.14;47.13
550;BME280;20066;48.764;9.176;2023-05-23T13:34:08;98273.50;;;21.65;46.54
550;BME280;20066;48.764;9.176;2023-05-23T13:36:36;98278.50;;;21.84;46.94